Wilton, Iowa
Current Conditions -  °F | °C
As of 12:55 PM on Friday 24 Oct 2014 (Local Time) from KMUT Reporting Station
Haze Haze  
Wind Chill: 61°   Ceiling: Unl
Heat Index: 61°   Visibility: 6mi
Dew Point: 55°   Wind: 10mph
Humidity: 82%   Direction: 170°S
Pressure: 30.01"   Gusts: NA
Location:  41.59°N, 91.02°W
Report Text: KMUT 241755Z AUTO 17009KT 6SM HZ SCT008 16/13 A3001 RMK AO2
Loading
Personal Weather Stations






























Interactive Weather Map
Tropical Storm Tracking
New forecast layout! Learn more

10-Day Weather Forecast

Advertisements
Track Severe Weather on mobile